< < Back
Terminal Aerodrome Forecast


Current Version              Previous Versions:   1  2  3  4  5  6  7  8  9  

Terminal Aerodrome Forecast

530
FTUS42 KCHS 231100
TAFCHS
TAF
KCHS 231129Z 2312/2412 36006KT P6SM SKC
     FM231700 32008KT P6SM FEW250
     FM240000 VRB03KT P6SM BKN250=



Latest METAR

340
SAUS80 KWBC 241400 RRB
MTRCHS
METAR KCHS 241356Z 04008KT 10SM FEW150 BKN250 14/08 A3007 RMK AO2 SLP183
T01440083


USA.gov is the U.S. government's official web portal to all federal, state and local government web resources and services.